createdAt,value
2018-07-07T00:00:24.719Z,12.63
2018-07-07T00:02:53.218Z,12.80
2018-07-07T00:05:22.165Z,12.70
2018-07-07T00:07:50.642Z,12.13
2018-07-07T00:10:19.095Z,11.40
2018-07-07T00:12:47.570Z,11.57
2018-07-07T00:15:18.477Z,12.43
2018-07-07T00:17:47.455Z,12.00
2018-07-07T00:20:16.445Z,11.97
2018-07-07T00:22:45.302Z,12.33
2018-07-07T00:25:15.042Z,12.03
2018-07-07T00:27:44.290Z,11.53
2018-07-07T00:30:12.755Z,12.77
2018-07-07T00:32:41.230Z,12.33
2018-07-07T00:35:09.904Z,11.73
2018-07-07T00:37:38.408Z,13.00
2018-07-07T00:40:07.586Z,12.13
2018-07-07T00:42:36.281Z,11.90
2018-07-07T00:45:04.521Z,11.47
2018-07-07T00:47:32.665Z,11.93
2018-07-07T00:50:01.238Z,11.93
2018-07-07T00:52:29.785Z,13.13
2018-07-07T00:54:58.285Z,11.73
2018-07-07T00:57:26.782Z,12.20
2018-07-07T00:59:56.339Z,10.33
2018-07-07T01:02:25.133Z,12.00
2018-07-07T01:04:54.764Z,11.87
2018-07-07T01:07:24.139Z,11.83
2018-07-07T01:09:53.370Z,15.00
2018-07-07T01:12:21.837Z,12.00
2018-07-07T01:14:50.335Z,13.60
2018-07-07T01:17:18.816Z,13.43
2018-07-07T01:19:47.295Z,14.60
2018-07-07T01:22:15.754Z,12.67
2018-07-07T01:24:44.403Z,14.40
2018-07-07T01:27:12.833Z,14.00
2018-07-07T01:29:41.971Z,13.70
2018-07-07T01:32:10.825Z,14.33
2018-07-07T01:34:39.498Z,13.87
2018-07-07T01:37:07.995Z,14.30
2018-07-07T01:39:36.617Z,14.90
2018-07-07T01:42:05.445Z,14.33
2018-07-07T01:44:33.630Z,15.67
2018-07-07T01:47:01.769Z,14.57
2018-07-07T01:49:30.470Z,14.17
2018-07-07T01:51:58.990Z,15.67
2018-07-07T01:54:27.413Z,16.97
2018-07-07T01:56:55.883Z,14.97
2018-07-07T01:59:24.333Z,14.50
2018-07-07T02:01:52.836Z,15.20
2018-07-07T02:04:21.530Z,14.47
2018-07-07T02:06:50.282Z,14.90
2018-07-07T02:09:18.812Z,16.43
2018-07-07T02:11:47.273Z,15.20
2018-07-07T02:14:15.733Z,15.50
2018-07-07T02:16:44.930Z,16.80
2018-07-07T02:19:13.634Z,17.17
2018-07-07T02:21:42.118Z,15.27
2018-07-07T02:24:10.571Z,16.27
2018-07-07T02:26:39.081Z,15.87
2018-07-07T02:29:07.596Z,15.30
2018-07-07T02:31:36.366Z,17.13
2018-07-07T02:34:05.106Z,16.77
2018-07-07T02:36:33.585Z,15.70
2018-07-07T02:39:02.140Z,16.47
2018-07-07T02:41:30.608Z,16.23
2018-07-07T02:43:59.130Z,16.43
2018-07-07T02:46:27.714Z,17.77
2018-07-07T02:48:56.130Z,17.10
2018-07-07T02:51:24.633Z,17.23
2018-07-07T02:53:53.103Z,16.50
2018-07-07T02:56:21.581Z,17.70
2018-07-07T02:58:50.050Z,16.77
2018-07-07T03:01:18.742Z,16.27
2018-07-07T03:03:47.222Z,16.67
2018-07-07T03:06:16.128Z,16.93
2018-07-07T03:08:44.723Z,18.00
2018-07-07T03:11:13.213Z,16.67
2018-07-07T03:13:41.662Z,17.30
2018-07-07T03:16:10.137Z,19.13
2018-07-07T03:18:38.598Z,16.80
2018-07-07T03:21:07.075Z,19.57
2018-07-07T03:23:35.514Z,18.17
2018-07-07T03:26:04.022Z,17.77
2018-07-07T03:28:32.474Z,18.37
2018-07-07T03:31:00.984Z,17.67
2018-07-07T03:33:29.486Z,16.23
2018-07-07T03:35:57.956Z,16.87
2018-07-07T03:38:26.446Z,16.50
2018-07-07T03:40:54.897Z,17.13
2018-07-07T03:43:23.597Z,16.53
2018-07-07T03:45:52.084Z,16.80
2018-07-07T03:48:20.559Z,17.70
2018-07-07T03:50:49.038Z,17.33
2018-07-07T03:53:17.529Z,17.50
2018-07-07T03:55:46.037Z,17.30
2018-07-07T03:58:14.189Z,16.50
2018-07-07T04:00:42.697Z,16.90
2018-07-07T04:03:11.173Z,17.10
2018-07-07T04:05:39.643Z,16.07
2018-07-07T04:08:08.147Z,16.60
2018-07-07T04:10:36.283Z,17.13
2018-07-07T04:13:04.834Z,17.67
2018-07-07T04:15:33.372Z,16.47
2018-07-07T04:18:01.851Z,15.83
2018-07-07T04:20:30.356Z,16.47
2018-07-07T04:22:58.488Z,16.83
2018-07-07T04:25:27.602Z,17.00
2018-07-07T04:27:56.014Z,16.57
2018-07-07T04:30:24.536Z,17.07
2018-07-07T04:32:52.981Z,15.47
2018-07-07T04:35:21.462Z,17.73
2018-07-07T04:37:49.933Z,17.10
2018-07-07T04:40:18.391Z,15.67
2018-07-07T04:42:47.049Z,15.20
2018-07-07T04:45:15.523Z,15.30
2018-07-07T04:47:43.985Z,15.20
2018-07-07T04:50:12.567Z,14.03
2018-07-07T04:52:41.066Z,12.47
2018-07-07T04:55:09.550Z,12.53
2018-07-07T04:57:37.966Z,13.50
2018-07-07T05:00:06.540Z,12.30
2018-07-07T05:02:34.977Z,12.40
2018-07-07T05:05:03.114Z,10.73
2018-07-07T05:07:31.619Z,12.17
2018-07-07T05:09:59.819Z,11.10
2018-07-07T05:12:28.277Z,12.10
2018-07-07T05:14:56.769Z,11.87
2018-07-07T05:17:24.909Z,10.70
2018-07-07T05:19:55.525Z,11.30
2018-07-07T05:22:23.989Z,12.70
2018-07-07T05:24:52.534Z,12.67
2018-07-07T05:27:20.985Z,12.33
2018-07-07T05:29:49.458Z,11.47
2018-07-07T05:32:17.922Z,12.77
2018-07-07T05:34:46.444Z,12.20
2018-07-07T05:37:15.010Z,12.70
2018-07-07T05:39:43.506Z,11.30
2018-07-07T05:42:11.993Z,10.67
2018-07-07T05:44:41.363Z,11.03
2018-07-07T05:47:09.885Z,12.00
2018-07-07T05:49:38.906Z,13.27
2018-07-07T05:52:07.346Z,13.40
2018-07-07T05:54:36.554Z,12.40
2018-07-07T05:57:05.049Z,11.47
2018-07-07T05:59:33.181Z,11.67
2018-07-07T06:02:02.107Z,11.30
2018-07-07T06:04:30.772Z,12.33
2018-07-07T06:06:59.189Z,12.33
2018-07-07T06:09:27.621Z,13.43
2018-07-07T06:11:56.083Z,12.47
2018-07-07T06:14:24.527Z,12.10
2018-07-07T06:16:53.001Z,12.20
2018-07-07T06:19:21.474Z,12.40
2018-07-07T06:21:49.936Z,13.20
2018-07-07T06:24:19.401Z,12.27
2018-07-07T06:26:47.921Z,12.13
2018-07-07T06:29:16.393Z,13.40
2018-07-07T06:31:44.846Z,13.67
2018-07-07T06:34:13.928Z,13.20
2018-07-07T06:36:42.917Z,13.60
2018-07-07T06:39:11.372Z,13.13
2018-07-07T06:41:39.902Z,12.40
2018-07-07T06:44:08.402Z,12.73
2018-07-07T06:46:36.864Z,12.77
2018-07-07T06:49:05.334Z,12.60
2018-07-07T06:51:33.498Z,13.30
2018-07-07T06:54:02.106Z,12.47
2018-07-07T06:56:30.386Z,12.43
2018-07-07T06:58:58.870Z,12.70
2018-07-07T07:01:27.013Z,12.13
2018-07-07T07:03:55.529Z,13.93
2018-07-07T07:06:23.973Z,11.90
2018-07-07T07:08:52.587Z,10.40
2018-07-07T07:11:21.084Z,10.07
2018-07-07T07:13:49.538Z,9.53
2018-07-07T07:16:18.049Z,9.67
2018-07-07T07:18:49.002Z,9.87
2018-07-07T07:21:19.126Z,8.93
2018-07-07T07:23:47.950Z,8.47
2018-07-07T07:26:16.475Z,7.87
2018-07-07T07:28:45.146Z,7.50
2018-07-07T07:31:13.726Z,7.83
2018-07-07T07:33:41.881Z,6.87
2018-07-07T07:36:11.306Z,7.90
2018-07-07T07:38:39.828Z,7.43
2018-07-07T07:41:08.410Z,10.40
2018-07-07T07:43:36.897Z,7.83
2018-07-07T07:46:05.352Z,7.50
2018-07-07T07:48:33.836Z,6.33
2018-07-07T07:51:02.411Z,6.40
2018-07-07T07:53:30.889Z,8.27
2018-07-07T07:55:59.050Z,6.57
2018-07-07T07:58:27.514Z,6.63
2018-07-07T08:00:55.985Z,7.57
2018-07-07T08:03:24.415Z,6.70
2018-07-07T08:05:52.784Z,7.20
2018-07-07T08:08:21.242Z,7.60
2018-07-07T08:10:49.661Z,6.97
2018-07-07T08:13:18.115Z,6.70
2018-07-07T08:15:46.582Z,7.17
2018-07-07T08:18:15.086Z,6.90
2018-07-07T08:20:43.609Z,8.80
2018-07-07T08:23:12.047Z,7.87
2018-07-07T08:25:40.541Z,7.20
2018-07-07T08:28:08.668Z,7.63
2018-07-07T08:30:37.142Z,8.13
2018-07-07T08:33:05.717Z,8.57
2018-07-07T08:35:34.247Z,7.97
2018-07-07T08:38:02.927Z,8.40
2018-07-07T08:40:31.366Z,7.57
2018-07-07T08:42:59.856Z,8.00
2018-07-07T08:45:28.330Z,9.07
2018-07-07T08:47:56.810Z,8.27
2018-07-07T08:50:25.261Z,8.43
2018-07-07T08:52:53.826Z,9.13
2018-07-07T08:55:22.314Z,9.33
2018-07-07T08:57:50.842Z,9.20
2018-07-07T09:00:19.468Z,10.30
2018-07-07T09:02:47.977Z,12.83
2018-07-07T09:05:17.394Z,14.37
2018-07-07T09:07:45.855Z,12.77
2018-07-07T09:10:14.370Z,12.10
2018-07-07T09:12:42.910Z,13.17
2018-07-07T09:15:11.490Z,10.70
2018-07-07T09:17:40.070Z,11.17
2018-07-07T09:20:08.581Z,12.73
2018-07-07T09:22:38.350Z,12.70
2018-07-07T09:25:07.584Z,17.00
2018-07-07T09:27:36.868Z,15.50
2018-07-07T09:30:05.610Z,14.90
2018-07-07T09:32:34.485Z,18.77
2018-07-07T09:35:03.069Z,17.57
2018-07-07T09:37:33.824Z,15.50
2018-07-07T09:40:03.869Z,14.67
2018-07-07T09:42:32.574Z,14.80
2018-07-07T09:45:01.131Z,15.03
2018-07-07T09:47:29.719Z,14.50
2018-07-07T09:49:58.286Z,14.80
2018-07-07T09:52:26.931Z,15.10
2018-07-07T09:54:55.494Z,14.60
2018-07-07T09:57:24.013Z,15.40
2018-07-07T09:59:52.152Z,16.63
2018-07-07T10:02:21.600Z,16.70
2018-07-07T10:04:50.065Z,14.33
2018-07-07T10:07:18.240Z,15.40
2018-07-07T10:09:46.921Z,16.70
2018-07-07T10:12:15.428Z,16.40
2018-07-07T10:14:43.889Z,17.70
2018-07-07T10:17:13.061Z,17.80
2018-07-07T10:19:41.559Z,17.13
2018-07-07T10:22:10.051Z,16.90
2018-07-07T10:24:38.239Z,13.77
2018-07-07T10:27:06.762Z,13.60
2018-07-07T10:29:35.260Z,13.10
2018-07-07T10:32:03.768Z,13.83
2018-07-07T10:34:32.301Z,14.80
2018-07-07T10:37:00.802Z,14.73
2018-07-07T10:39:29.243Z,15.30
2018-07-07T10:41:58.589Z,13.67
2018-07-07T10:44:27.084Z,13.70
2018-07-07T10:46:55.543Z,13.70
2018-07-07T10:49:24.053Z,13.53
2018-07-07T10:51:52.835Z,12.77
2018-07-07T10:54:21.335Z,15.10
2018-07-07T10:56:49.902Z,14.00
2018-07-07T10:59:18.353Z,14.83
2018-07-07T11:01:46.838Z,14.00
2018-07-07T11:04:15.630Z,14.53
2018-07-07T11:06:44.047Z,13.70
2018-07-07T11:09:12.590Z,13.27
2018-07-07T11:11:41.069Z,15.53
2018-07-07T11:14:09.530Z,15.60
2018-07-07T11:16:38.027Z,12.93
2018-07-07T11:19:06.474Z,13.80
2018-07-07T11:21:34.617Z,12.07
2018-07-07T11:24:04.677Z,11.27
2018-07-07T11:26:32.853Z,13.40
2018-07-07T11:29:01.034Z,13.20
2018-07-07T11:31:29.515Z,12.93
2018-07-07T11:33:58.030Z,11.80
2018-07-07T11:36:26.888Z,13.30
2018-07-07T11:38:55.369Z,12.27
2018-07-07T11:41:23.564Z,11.63
2018-07-07T11:43:53.359Z,11.77
2018-07-07T11:46:21.896Z,13.60
2018-07-07T11:48:50.431Z,11.23
2018-07-07T11:51:18.909Z,10.43
2018-07-07T11:53:47.538Z,11.80
2018-07-07T11:56:16.003Z,11.27
2018-07-07T11:58:44.479Z,10.47
2018-07-07T12:01:12.994Z,11.50
2018-07-07T12:03:41.534Z,11.60
2018-07-07T12:06:09.986Z,10.93
2018-07-07T12:08:38.481Z,9.93
2018-07-07T12:11:07.118Z,11.00
2018-07-07T12:13:35.640Z,10.67
2018-07-07T12:16:04.166Z,10.40
2018-07-07T12:18:32.726Z,12.60
2018-07-07T12:21:01.200Z,11.97
2018-07-07T12:23:29.760Z,11.13
2018-07-07T12:25:58.235Z,11.37
2018-07-07T12:28:26.821Z,11.87
2018-07-07T12:30:55.307Z,11.80
2018-07-07T12:33:23.817Z,10.97
2018-07-07T12:35:52.608Z,11.00
2018-07-07T12:38:21.131Z,10.20
2018-07-07T12:40:49.690Z,11.87
2018-07-07T12:43:18.151Z,11.63
2018-07-07T12:45:46.327Z,12.60
2018-07-07T12:48:14.835Z,12.00
2018-07-07T12:50:43.305Z,13.77
2018-07-07T12:53:12.698Z,11.93
2018-07-07T12:55:41.190Z,12.03
2018-07-07T12:58:10.380Z,12.43
2018-07-07T13:00:38.538Z,11.80
2018-07-07T13:03:07.877Z,12.17
2018-07-07T13:05:36.429Z,11.60
2018-07-07T13:08:04.643Z,13.20
2018-07-07T13:10:33.211Z,12.33
2018-07-07T13:13:01.698Z,12.50
2018-07-07T13:15:30.137Z,12.30
2018-07-07T13:17:58.654Z,12.37
2018-07-07T13:20:27.160Z,12.17
2018-07-07T13:22:55.695Z,13.00
2018-07-07T13:25:24.422Z,11.90
2018-07-07T13:27:52.894Z,11.80
2018-07-07T13:30:21.455Z,12.63
2018-07-07T13:32:49.605Z,13.57
2018-07-07T13:35:18.391Z,13.10
2018-07-07T13:37:46.880Z,12.70
2018-07-07T13:40:15.054Z,13.13
2018-07-07T13:42:43.841Z,11.90
2018-07-07T13:45:12.325Z,12.70
2018-07-07T13:47:40.910Z,12.60
2018-07-07T13:50:09.403Z,12.27
2018-07-07T13:52:37.892Z,13.00
2018-07-07T13:55:06.449Z,11.80
2018-07-07T13:57:35.146Z,11.70
2018-07-07T14:00:03.678Z,12.37
2018-07-07T14:02:32.133Z,11.90
2018-07-07T14:05:00.611Z,11.80
2018-07-07T14:07:29.127Z,11.37
2018-07-07T14:09:57.607Z,12.20
2018-07-07T14:12:26.703Z,10.83
2018-07-07T14:14:55.174Z,11.07
2018-07-07T14:17:23.476Z,10.67
2018-07-07T14:19:51.915Z,12.17
2018-07-07T14:22:20.375Z,10.43
2018-07-07T14:24:48.857Z,10.73
2018-07-07T14:27:17.325Z,10.90
2018-07-07T14:29:45.818Z,10.33
2018-07-07T14:32:14.278Z,9.43
2018-07-07T14:34:42.766Z,9.20
2018-07-07T14:37:11.286Z,10.67
2018-07-07T14:39:52.414Z,10.00
2018-07-07T14:42:46.146Z,9.60
2018-07-07T14:45:16.846Z,9.10
2018-07-07T14:47:46.693Z,10.13
2018-07-07T14:50:15.590Z,9.57
2018-07-07T14:52:44.764Z,9.77
2018-07-07T14:55:14.412Z,9.40
2018-07-07T14:57:43.711Z,9.10
2018-07-07T15:00:16.695Z,9.67
2018-07-07T15:02:45.857Z,9.00
2018-07-07T15:05:14.350Z,9.10
2018-07-07T15:07:43.229Z,8.70
2018-07-07T15:10:12.677Z,9.43
2018-07-07T15:12:41.130Z,9.57
2018-07-07T15:15:10.256Z,10.30
2018-07-07T15:17:39.494Z,8.73
2018-07-07T15:20:07.953Z,9.27
2018-07-07T15:22:36.441Z,9.57
2018-07-07T15:25:04.557Z,9.43
2018-07-07T15:27:33.092Z,9.03
2018-07-07T15:30:01.600Z,8.67
2018-07-07T15:32:30.119Z,8.93
2018-07-07T15:34:58.882Z,8.77
2018-07-07T15:37:27.390Z,8.37
2018-07-07T15:39:55.936Z,8.77
2018-07-07T15:42:24.335Z,9.00
2018-07-07T15:44:52.891Z,8.77
2018-07-07T15:47:21.334Z,8.63
2018-07-07T15:49:49.503Z,9.83
2018-07-07T15:52:17.982Z,9.27
2018-07-07T15:54:46.099Z,9.03
2018-07-07T15:57:14.526Z,9.53
2018-07-07T15:59:42.964Z,8.77
2018-07-07T16:02:11.498Z,9.20
2018-07-07T16:04:40.580Z,10.60
2018-07-07T16:07:08.717Z,10.10
2018-07-07T16:09:37.287Z,9.60
2018-07-07T16:12:06.275Z,10.80
2018-07-07T16:14:34.790Z,9.67
2018-07-07T16:17:03.511Z,9.77
2018-07-07T16:19:32.015Z,10.33
2018-07-07T16:22:00.223Z,9.93
2018-07-07T16:24:28.321Z,10.63
2018-07-07T16:26:56.810Z,11.10
2018-07-07T16:29:25.426Z,11.17
2018-07-07T16:31:53.573Z,10.37
2018-07-07T16:34:22.197Z,11.17
2018-07-07T16:36:50.667Z,11.50
2018-07-07T16:39:19.062Z,11.00
2018-07-07T16:41:47.594Z,10.40
2018-07-07T16:44:16.089Z,10.00
2018-07-07T16:46:44.638Z,11.40
2018-07-07T16:49:13.138Z,11.50
2018-07-07T16:51:41.674Z,10.80
2018-07-07T16:54:10.239Z,11.07
2018-07-07T16:56:38.807Z,17.90
2018-07-07T16:59:07.338Z,19.90
2018-07-07T17:01:36.239Z,29.40
2018-07-07T17:04:04.969Z,31.13
2018-07-07T17:06:33.489Z,18.53
2018-07-07T17:09:02.239Z,12.10
2018-07-07T17:11:30.779Z,11.30
2018-07-07T17:13:59.344Z,11.40
2018-07-07T17:16:28.251Z,11.57
2018-07-07T17:18:57.108Z,10.70
2018-07-07T17:21:25.895Z,11.30
2018-07-07T17:23:54.334Z,11.80
2018-07-07T17:26:22.927Z,11.80
2018-07-07T17:28:51.540Z,11.50
2018-07-07T17:31:19.750Z,10.53
2018-07-07T17:33:48.404Z,12.50
2018-07-07T17:36:17.924Z,11.80
2018-07-07T17:38:47.511Z,12.33
2018-07-07T17:41:16.116Z,12.10
2018-07-07T17:43:45.319Z,11.90
2018-07-07T17:46:13.514Z,11.50
2018-07-07T17:48:42.036Z,12.43
2018-07-07T17:51:10.602Z,11.57
2018-07-07T17:53:39.234Z,12.37
2018-07-07T17:56:08.570Z,11.67
2018-07-07T17:58:37.224Z,12.70
2018-07-07T18:01:06.051Z,12.20
2018-07-07T18:03:34.747Z,12.03
2018-07-07T18:06:03.260Z,11.90
2018-07-07T18:08:31.778Z,12.90
2018-07-07T18:11:00.211Z,13.30
2018-07-07T18:13:28.669Z,12.07
2018-07-07T18:15:57.110Z,12.23
2018-07-07T18:18:25.540Z,10.80
2018-07-07T18:20:53.985Z,13.90
2018-07-07T18:23:22.114Z,12.27
2018-07-07T18:25:50.563Z,11.47
2018-07-07T18:28:19.074Z,11.47
2018-07-07T18:30:47.511Z,11.60
2018-07-07T18:33:15.977Z,12.63
2018-07-07T18:35:44.475Z,12.33
2018-07-07T18:38:13.035Z,12.30
2018-07-07T18:40:41.440Z,11.50
2018-07-07T18:43:09.632Z,11.73
2018-07-07T18:45:37.734Z,11.43
2018-07-07T18:48:06.270Z,11.83
2018-07-07T18:50:34.428Z,11.67
2018-07-07T18:53:02.890Z,13.20
2018-07-07T18:55:31.342Z,12.13
2018-07-07T18:57:59.856Z,11.80
2018-07-07T19:00:28.518Z,11.07
2018-07-07T19:02:56.975Z,11.83
2018-07-07T19:05:25.494Z,11.67
2018-07-07T19:07:54.003Z,12.83
2018-07-07T19:10:22.474Z,12.13
2018-07-07T19:12:50.924Z,12.67
2018-07-07T19:15:21.114Z,12.00
2018-07-07T19:17:50.583Z,11.87
2018-07-07T19:20:24.283Z,11.63
2018-07-07T19:22:58.077Z,12.20
2018-07-07T19:25:31.743Z,12.47
2018-07-07T19:28:00.247Z,12.20
2018-07-07T19:30:28.761Z,12.27
2018-07-07T19:33:02.651Z,13.43
2018-07-07T19:35:36.339Z,12.33
2018-07-07T19:38:05.389Z,11.90
2018-07-07T19:40:33.878Z,12.43
2018-07-07T19:43:02.325Z,12.77
2018-07-07T19:45:30.798Z,13.20
2018-07-07T19:47:59.233Z,13.30
2018-07-07T19:50:27.667Z,13.47
2018-07-07T19:52:56.163Z,12.27
2018-07-07T19:55:24.625Z,13.50
2018-07-07T19:57:53.110Z,13.23
2018-07-07T20:00:21.632Z,12.87
2018-07-07T20:02:49.781Z,13.57
2018-07-07T20:05:18.238Z,13.10
2018-07-07T20:07:46.788Z,14.07
2018-07-07T20:10:14.908Z,13.13
2018-07-07T20:12:43.502Z,14.30
2018-07-07T20:15:11.956Z,12.50
2018-07-07T20:17:51.782Z,14.37
2018-07-07T20:20:40.060Z,13.60
2018-07-07T20:23:10.730Z,14.87
2018-07-07T20:25:39.305Z,14.33
2018-07-07T20:28:13.023Z,14.57
2018-07-07T20:30:41.466Z,14.63
2018-07-07T20:33:09.962Z,14.00
2018-07-07T20:35:38.472Z,14.97
2018-07-07T20:38:07.165Z,14.17
2018-07-07T20:40:35.334Z,14.60
2018-07-07T20:43:03.846Z,14.50
2018-07-07T20:45:32.281Z,15.70
2018-07-07T20:48:00.756Z,13.97
2018-07-07T20:50:29.233Z,15.10
2018-07-07T20:52:57.698Z,14.43
2018-07-07T20:55:26.131Z,13.80
2018-07-07T20:57:54.774Z,14.40
2018-07-07T21:00:23.235Z,13.27
2018-07-07T21:02:51.655Z,14.20
2018-07-07T21:05:20.105Z,14.20
2018-07-07T21:07:48.558Z,14.07
2018-07-07T21:10:16.994Z,14.70
2018-07-07T21:12:45.459Z,13.50
2018-07-07T21:15:13.891Z,14.07
2018-07-07T21:17:42.373Z,15.20
2018-07-07T21:20:10.847Z,12.60
2018-07-07T21:22:40.195Z,13.33
2018-07-07T21:25:08.693Z,14.00
2018-07-07T21:27:37.158Z,14.63
2018-07-07T21:30:05.771Z,13.83
2018-07-07T21:32:34.253Z,13.93
2018-07-07T21:35:02.739Z,14.90
2018-07-07T21:37:31.201Z,15.03
2018-07-07T21:39:59.684Z,14.00
2018-07-07T21:42:28.131Z,14.07
2018-07-07T21:44:56.652Z,14.40
2018-07-07T21:47:25.102Z,14.07
2018-07-07T21:49:53.536Z,14.30
2018-07-07T21:52:22.064Z,14.43
2018-07-07T21:54:50.501Z,14.33
2018-07-07T21:57:24.290Z,13.87
2018-07-07T21:59:52.805Z,13.40
2018-07-07T22:02:26.625Z,14.17
2018-07-07T22:05:00.342Z,14.33
2018-07-07T22:07:34.691Z,13.13
2018-07-07T22:10:03.193Z,13.93
2018-07-07T22:12:31.646Z,12.73
2018-07-07T22:15:00.127Z,13.40
2018-07-07T22:17:28.574Z,13.57
2018-07-07T22:19:56.706Z,12.07
2018-07-07T22:22:25.217Z,13.20
2018-07-07T22:24:53.781Z,12.67
2018-07-07T22:27:22.280Z,12.50
2018-07-07T22:29:50.809Z,11.93
2018-07-07T22:32:21.138Z,11.77
2018-07-07T22:34:49.695Z,12.07
2018-07-07T22:37:18.184Z,11.63
2018-07-07T22:39:47.074Z,11.07
2018-07-07T22:42:16.513Z,12.20
2018-07-07T22:44:46.261Z,10.33
2018-07-07T22:47:14.767Z,10.97
2018-07-07T22:49:43.280Z,11.10
2018-07-07T22:52:12.459Z,9.73
2018-07-07T22:54:41.218Z,9.27
2018-07-07T22:57:09.374Z,9.03
2018-07-07T22:59:37.874Z,9.40
2018-07-07T23:02:06.532Z,8.90
2018-07-07T23:04:34.975Z,8.93
2018-07-07T23:07:03.671Z,8.30
2018-07-07T23:09:32.166Z,8.53
2018-07-07T23:12:00.635Z,8.17
2018-07-07T23:14:29.146Z,8.00
2018-07-07T23:16:59.447Z,8.30
2018-07-07T23:19:28.211Z,8.53
2018-07-07T23:21:57.060Z,7.67
2018-07-07T23:24:25.575Z,7.73
2018-07-07T23:26:53.722Z,7.33
2018-07-07T23:29:22.174Z,7.67
2018-07-07T23:31:50.654Z,6.90
2018-07-07T23:34:19.101Z,6.57
2018-07-07T23:36:47.242Z,7.17
2018-07-07T23:39:15.713Z,6.90
2018-07-07T23:41:44.174Z,7.00
2018-07-07T23:44:12.644Z,6.60
2018-07-07T23:46:41.129Z,6.10
2018-07-07T23:49:09.598Z,6.67
2018-07-07T23:51:38.118Z,6.30
2018-07-07T23:54:06.591Z,5.80
2018-07-07T23:56:35.058Z,6.17
2018-07-07T23:59:03.565Z,5.50
